sensor_id;sensor_type;location;lat;lon;timestamp;P1;durP1;ratioP1;P2;durP2;ratioP2
20076;SDS011;12348;42.710;23.378;2022-10-16T00:03:57;10.57;;;6.63;;
20076;SDS011;12348;42.710;23.378;2022-10-16T00:06:25;13.20;;;7.33;;
20076;SDS011;12348;42.710;23.378;2022-10-16T00:08:53;10.30;;;5.90;;
20076;SDS011;12348;42.710;23.378;2022-10-16T00:11:21;13.00;;;6.40;;
20076;SDS011;12348;42.710;23.378;2022-10-16T00:13:52;14.23;;;6.10;;
20076;SDS011;12348;42.710;23.378;2022-10-16T00:16:22;11.57;;;6.50;;
20076;SDS011;12348;42.710;23.378;2022-10-16T00:18:49;8.80;;;5.23;;
20076;SDS011;12348;42.710;23.378;2022-10-16T00:21:17;9.20;;;5.50;;
20076;SDS011;12348;42.710;23.378;2022-10-16T00:23:45;8.83;;;5.43;;
20076;SDS011;12348;42.710;23.378;2022-10-16T00:26:13;10.43;;;6.23;;
20076;SDS011;12348;42.710;23.378;2022-10-16T00:28:41;7.33;;;5.40;;
20076;SDS011;12348;42.710;23.378;2022-10-16T00:31:09;11.77;;;5.77;;
20076;SDS011;12348;42.710;23.378;2022-10-16T00:33:37;11.87;;;5.80;;
20076;SDS011;12348;42.710;23.378;2022-10-16T00:36:05;12.47;;;6.70;;
20076;SDS011;12348;42.710;23.378;2022-10-16T00:38:34;8.47;;;5.53;;
20076;SDS011;12348;42.710;23.378;2022-10-16T00:41:00;17.40;;;7.83;;
20076;SDS011;12348;42.710;23.378;2022-10-16T00:43:36;10.33;;;5.50;;
20076;SDS011;12348;42.710;23.378;2022-10-16T00:46:07;9.93;;;5.43;;
20076;SDS011;12348;42.710;23.378;2022-10-16T00:48:40;8.47;;;5.50;;
20076;SDS011;12348;42.710;23.378;2022-10-16T00:51:08;11.17;;;5.77;;
20076;SDS011;12348;42.710;23.378;2022-10-16T00:53:35;8.87;;;6.30;;
20076;SDS011;12348;42.710;23.378;2022-10-16T00:56:02;11.93;;;5.77;;
20076;SDS011;12348;42.710;23.378;2022-10-16T00:58:29;8.93;;;5.57;;
20076;SDS011;12348;42.710;23.378;2022-10-16T01:00:56;11.07;;;5.63;;
20076;SDS011;12348;42.710;23.378;2022-10-16T01:03:26;10.70;;;6.33;;
20076;SDS011;12348;42.710;23.378;2022-10-16T01:05:58;7.83;;;5.70;;
20076;SDS011;12348;42.710;23.378;2022-10-16T01:11:37;14.57;;;6.87;;
20076;SDS011;12348;42.710;23.378;2022-10-16T01:14:11;13.13;;;5.87;;
20076;SDS011;12348;42.710;23.378;2022-10-16T01:16:46;10.60;;;6.17;;
20076;SDS011;12348;42.710;23.378;2022-10-16T01:19:25;12.20;;;7.17;;
20076;SDS011;12348;42.710;23.378;2022-10-16T01:22:05;9.50;;;5.43;;
20076;SDS011;12348;42.710;23.378;2022-10-16T01:24:37;9.37;;;6.47;;
20076;SDS011;12348;42.710;23.378;2022-10-16T01:27:08;12.13;;;6.80;;
20076;SDS011;12348;42.710;23.378;2022-10-16T01:29:38;12.67;;;6.20;;
20076;SDS011;12348;42.710;23.378;2022-10-16T01:32:11;9.90;;;6.33;;
20076;SDS011;12348;42.710;23.378;2022-10-16T01:34:44;10.00;;;5.70;;
20076;SDS011;12348;42.710;23.378;2022-10-16T01:37:18;8.47;;;5.10;;
20076;SDS011;12348;42.710;23.378;2022-10-16T01:39:49;8.50;;;5.60;;
20076;SDS011;12348;42.710;23.378;2022-10-16T01:42:24;10.77;;;6.37;;
20076;SDS011;12348;42.710;23.378;2022-10-16T01:44:55;10.73;;;6.47;;
20076;SDS011;12348;42.710;23.378;2022-10-16T01:47:25;7.97;;;5.87;;
20076;SDS011;12348;42.710;23.378;2022-10-16T01:49:53;10.30;;;5.90;;
20076;SDS011;12348;42.710;23.378;2022-10-16T01:52:23;12.20;;;6.60;;
20076;SDS011;12348;42.710;23.378;2022-10-16T01:54:53;11.00;;;6.47;;
20076;SDS011;12348;42.710;23.378;2022-10-16T01:57:24;11.83;;;6.80;;
20076;SDS011;12348;42.710;23.378;2022-10-16T01:59:52;10.40;;;6.27;;
20076;SDS011;12348;42.710;23.378;2022-10-16T02:02:24;9.73;;;6.40;;
20076;SDS011;12348;42.710;23.378;2022-10-16T02:04:55;8.30;;;5.77;;
20076;SDS011;12348;42.710;23.378;2022-10-16T02:07:25;9.67;;;5.80;;
20076;SDS011;12348;42.710;23.378;2022-10-16T02:09:51;13.87;;;7.13;;
20076;SDS011;12348;42.710;23.378;2022-10-16T02:12:19;10.33;;;6.50;;
20076;SDS011;12348;42.710;23.378;2022-10-16T02:14:51;13.10;;;6.47;;
20076;SDS011;12348;42.710;23.378;2022-10-16T02:17:19;9.43;;;6.03;;
20076;SDS011;12348;42.710;23.378;2022-10-16T02:19:46;11.83;;;6.20;;
20076;SDS011;12348;42.710;23.378;2022-10-16T02:22:16;9.60;;;6.40;;
20076;SDS011;12348;42.710;23.378;2022-10-16T02:24:49;7.83;;;5.43;;
20076;SDS011;12348;42.710;23.378;2022-10-16T02:27:19;15.13;;;6.97;;
20076;SDS011;12348;42.710;23.378;2022-10-16T02:29:53;12.67;;;6.17;;
20076;SDS011;12348;42.710;23.378;2022-10-16T02:32:24;14.33;;;7.73;;
20076;SDS011;12348;42.710;23.378;2022-10-16T02:34:56;11.87;;;7.23;;
20076;SDS011;12348;42.710;23.378;2022-10-16T02:37:25;12.07;;;6.47;;
20076;SDS011;12348;42.710;23.378;2022-10-16T02:39:53;13.13;;;7.13;;
20076;SDS011;12348;42.710;23.378;2022-10-16T02:42:21;9.40;;;6.57;;
20076;SDS011;12348;42.710;23.378;2022-10-16T02:44:55;12.20;;;7.30;;
20076;SDS011;12348;42.710;23.378;2022-10-16T02:47:22;14.10;;;7.63;;
20076;SDS011;12348;42.710;23.378;2022-10-16T02:49:49;15.30;;;6.73;;
20076;SDS011;12348;42.710;23.378;2022-10-16T02:52:16;11.53;;;7.00;;
20076;SDS011;12348;42.710;23.378;2022-10-16T02:54:42;9.97;;;6.30;;
20076;SDS011;12348;42.710;23.378;2022-10-16T02:57:09;10.80;;;6.63;;
20076;SDS011;12348;42.710;23.378;2022-10-16T02:59:38;13.13;;;6.83;;
20076;SDS011;12348;42.710;23.378;2022-10-16T03:02:04;12.03;;;7.33;;
20076;SDS011;12348;42.710;23.378;2022-10-16T03:04:31;11.03;;;6.40;;
20076;SDS011;12348;42.710;23.378;2022-10-16T03:06:58;15.30;;;6.37;;
20076;SDS011;12348;42.710;23.378;2022-10-16T03:09:24;11.73;;;6.40;;
20076;SDS011;12348;42.710;23.378;2022-10-16T03:11:51;11.70;;;7.37;;
20076;SDS011;12348;42.710;23.378;2022-10-16T03:14:19;11.97;;;6.93;;
20076;SDS011;12348;42.710;23.378;2022-10-16T03:16:47;10.33;;;6.73;;
20076;SDS011;12348;42.710;23.378;2022-10-16T03:19:16;9.53;;;5.73;;
20076;SDS011;12348;42.710;23.378;2022-10-16T03:21:43;13.73;;;7.07;;
20076;SDS011;12348;42.710;23.378;2022-10-16T03:24:10;11.83;;;6.83;;
20076;SDS011;12348;42.710;23.378;2022-10-16T03:26:37;15.70;;;7.47;;
20076;SDS011;12348;42.710;23.378;2022-10-16T03:29:03;13.57;;;6.20;;
20076;SDS011;12348;42.710;23.378;2022-10-16T03:31:31;13.77;;;7.57;;
20076;SDS011;12348;42.710;23.378;2022-10-16T03:33:59;19.23;;;8.03;;
20076;SDS011;12348;42.710;23.378;2022-10-16T03:36:26;15.27;;;6.83;;
20076;SDS011;12348;42.710;23.378;2022-10-16T03:38:53;18.03;;;7.40;;
20076;SDS011;12348;42.710;23.378;2022-10-16T03:41:19;12.77;;;7.63;;
20076;SDS011;12348;42.710;23.378;2022-10-16T03:43:46;16.83;;;8.53;;
20076;SDS011;12348;42.710;23.378;2022-10-16T03:46:13;16.37;;;7.60;;
20076;SDS011;12348;42.710;23.378;2022-10-16T03:48:39;12.83;;;6.70;;
20076;SDS011;12348;42.710;23.378;2022-10-16T03:51:08;20.87;;;7.90;;
20076;SDS011;12348;42.710;23.378;2022-10-16T03:53:34;13.03;;;7.43;;
20076;SDS011;12348;42.710;23.378;2022-10-16T03:56:01;13.27;;;8.10;;
20076;SDS011;12348;42.710;23.378;2022-10-16T03:58:28;17.20;;;8.97;;
20076;SDS011;12348;42.710;23.378;2022-10-16T04:00:55;13.27;;;7.90;;
20076;SDS011;12348;42.710;23.378;2022-10-16T04:03:21;16.60;;;9.07;;
20076;SDS011;12348;42.710;23.378;2022-10-16T04:05:48;15.80;;;8.50;;
20076;SDS011;12348;42.710;23.378;2022-10-16T04:08:16;19.13;;;9.03;;
20076;SDS011;12348;42.710;23.378;2022-10-16T04:10:43;12.70;;;7.53;;
20076;SDS011;12348;42.710;23.378;2022-10-16T04:13:10;13.77;;;8.13;;
20076;SDS011;12348;42.710;23.378;2022-10-16T04:15:37;18.93;;;9.23;;
20076;SDS011;12348;42.710;23.378;2022-10-16T04:18:04;12.03;;;7.63;;
20076;SDS011;12348;42.710;23.378;2022-10-16T04:20:33;13.10;;;7.10;;
20076;SDS011;12348;42.710;23.378;2022-10-16T04:23:00;15.27;;;8.13;;
20076;SDS011;12348;42.710;23.378;2022-10-16T04:25:28;15.40;;;8.37;;
20076;SDS011;12348;42.710;23.378;2022-10-16T04:27:55;12.43;;;6.60;;
20076;SDS011;12348;42.710;23.378;2022-10-16T04:30:22;10.93;;;6.90;;
20076;SDS011;12348;42.710;23.378;2022-10-16T04:32:49;14.97;;;7.97;;
20076;SDS011;12348;42.710;23.378;2022-10-16T04:35:16;13.23;;;7.10;;
20076;SDS011;12348;42.710;23.378;2022-10-16T04:37:44;12.10;;;6.10;;
20076;SDS011;12348;42.710;23.378;2022-10-16T04:40:11;9.60;;;6.50;;
20076;SDS011;12348;42.710;23.378;2022-10-16T04:42:40;12.27;;;6.90;;
20076;SDS011;12348;42.710;23.378;2022-10-16T04:45:07;12.80;;;6.37;;
20076;SDS011;12348;42.710;23.378;2022-10-16T04:47:34;14.10;;;7.27;;
20076;SDS011;12348;42.710;23.378;2022-10-16T04:50:02;12.27;;;7.07;;
20076;SDS011;12348;42.710;23.378;2022-10-16T04:52:29;16.10;;;8.33;;
20076;SDS011;12348;42.710;23.378;2022-10-16T04:54:56;14.17;;;8.30;;
20076;SDS011;12348;42.710;23.378;2022-10-16T04:57:26;21.20;;;8.70;;
20076;SDS011;12348;42.710;23.378;2022-10-16T04:59:54;18.23;;;9.77;;
20076;SDS011;12348;42.710;23.378;2022-10-16T05:02:21;19.70;;;8.60;;
20076;SDS011;12348;42.710;23.378;2022-10-16T05:04:48;16.43;;;8.70;;
20076;SDS011;12348;42.710;23.378;2022-10-16T05:07:15;12.63;;;8.10;;
20076;SDS011;12348;42.710;23.378;2022-10-16T05:09:41;14.53;;;8.40;;
20076;SDS011;12348;42.710;23.378;2022-10-16T05:12:08;13.53;;;7.93;;
20076;SDS011;12348;42.710;23.378;2022-10-16T05:14:35;13.60;;;8.10;;
20076;SDS011;12348;42.710;23.378;2022-10-16T05:17:03;8.60;;;6.27;;
20076;SDS011;12348;42.710;23.378;2022-10-16T05:19:30;8.17;;;5.70;;
20076;SDS011;12348;42.710;23.378;2022-10-16T05:21:56;7.00;;;5.30;;
20076;SDS011;12348;42.710;23.378;2022-10-16T05:24:24;8.30;;;4.53;;
20076;SDS011;12348;42.710;23.378;2022-10-16T05:26:50;7.03;;;4.77;;
20076;SDS011;12348;42.710;23.378;2022-10-16T05:29:18;5.73;;;4.57;;
20076;SDS011;12348;42.710;23.378;2022-10-16T05:31:44;5.73;;;4.03;;
20076;SDS011;12348;42.710;23.378;2022-10-16T05:34:12;8.27;;;5.33;;
20076;SDS011;12348;42.710;23.378;2022-10-16T05:36:39;6.73;;;4.10;;
20076;SDS011;12348;42.710;23.378;2022-10-16T05:39:06;7.00;;;4.23;;
20076;SDS011;12348;42.710;23.378;2022-10-16T05:41:33;8.30;;;5.40;;
20076;SDS011;12348;42.710;23.378;2022-10-16T05:43:59;8.83;;;5.03;;
20076;SDS011;12348;42.710;23.378;2022-10-16T05:46:26;8.80;;;5.63;;
20076;SDS011;12348;42.710;23.378;2022-10-16T05:48:53;6.70;;;3.93;;
20076;SDS011;12348;42.710;23.378;2022-10-16T05:51:21;12.50;;;5.50;;
20076;SDS011;12348;42.710;23.378;2022-10-16T05:53:48;9.90;;;4.33;;
20076;SDS011;12348;42.710;23.378;2022-10-16T05:56:15;7.97;;;4.83;;
20076;SDS011;12348;42.710;23.378;2022-10-16T05:58:42;8.87;;;4.53;;
20076;SDS011;12348;42.710;23.378;2022-10-16T06:01:09;5.27;;;3.80;;
20076;SDS011;12348;42.710;23.378;2022-10-16T06:03:38;9.77;;;4.93;;
20076;SDS011;12348;42.710;23.378;2022-10-16T06:06:08;8.00;;;4.90;;
20076;SDS011;12348;42.710;23.378;2022-10-16T06:08:37;6.93;;;4.53;;
20076;SDS011;12348;42.710;23.378;2022-10-16T06:11:05;6.27;;;4.50;;
20076;SDS011;12348;42.710;23.378;2022-10-16T06:13:32;8.03;;;4.40;;
20076;SDS011;12348;42.710;23.378;2022-10-16T06:15:59;7.77;;;4.60;;
20076;SDS011;12348;42.710;23.378;2022-10-16T06:18:27;7.33;;;4.70;;
20076;SDS011;12348;42.710;23.378;2022-10-16T06:20:56;6.27;;;4.23;;
20076;SDS011;12348;42.710;23.378;2022-10-16T06:23:24;5.40;;;4.10;;
20076;SDS011;12348;42.710;23.378;2022-10-16T06:25:53;9.87;;;6.43;;
20076;SDS011;12348;42.710;23.378;2022-10-16T06:28:20;9.03;;;4.73;;
20076;SDS011;12348;42.710;23.378;2022-10-16T06:30:47;17.43;;;6.60;;
20076;SDS011;12348;42.710;23.378;2022-10-16T06:33:13;11.97;;;5.67;;
20076;SDS011;12348;42.710;23.378;2022-10-16T06:35:40;10.23;;;6.27;;
20076;SDS011;12348;42.710;23.378;2022-10-16T06:38:07;13.03;;;8.60;;
20076;SDS011;12348;42.710;23.378;2022-10-16T06:40:34;11.57;;;5.83;;
20076;SDS011;12348;42.710;23.378;2022-10-16T06:43:02;12.27;;;7.60;;
20076;SDS011;12348;42.710;23.378;2022-10-16T06:45:28;10.83;;;7.23;;
20076;SDS011;12348;42.710;23.378;2022-10-16T06:47:55;9.30;;;5.17;;
20076;SDS011;12348;42.710;23.378;2022-10-16T06:50:22;8.23;;;5.50;;
20076;SDS011;12348;42.710;23.378;2022-10-16T06:52:48;6.90;;;4.43;;
20076;SDS011;12348;42.710;23.378;2022-10-16T06:55:15;8.10;;;4.13;;
20076;SDS011;12348;42.710;23.378;2022-10-16T06:57:43;11.20;;;7.77;;
20076;SDS011;12348;42.710;23.378;2022-10-16T07:00:14;10.43;;;6.97;;
20076;SDS011;12348;42.710;23.378;2022-10-16T07:02:41;6.10;;;5.10;;
20076;SDS011;12348;42.710;23.378;2022-10-16T07:05:08;6.50;;;5.13;;
20076;SDS011;12348;42.710;23.378;2022-10-16T07:07:35;7.03;;;5.10;;
20076;SDS011;12348;42.710;23.378;2022-10-16T07:10:01;5.07;;;4.20;;
20076;SDS011;12348;42.710;23.378;2022-10-16T07:12:28;8.80;;;5.57;;
20076;SDS011;12348;42.710;23.378;2022-10-16T07:14:55;7.93;;;4.63;;
20076;SDS011;12348;42.710;23.378;2022-10-16T07:17:23;8.87;;;5.57;;
20076;SDS011;12348;42.710;23.378;2022-10-16T07:19:50;11.63;;;6.17;;
20076;SDS011;12348;42.710;23.378;2022-10-16T07:22:18;7.80;;;5.57;;
20076;SDS011;12348;42.710;23.378;2022-10-16T07:24:45;9.43;;;5.80;;
20076;SDS011;12348;42.710;23.378;2022-10-16T07:27:12;9.10;;;5.53;;
20076;SDS011;12348;42.710;23.378;2022-10-16T07:29:40;14.20;;;7.57;;
20076;SDS011;12348;42.710;23.378;2022-10-16T07:32:07;12.97;;;6.47;;
20076;SDS011;12348;42.710;23.378;2022-10-16T07:34:35;8.33;;;5.37;;
20076;SDS011;12348;42.710;23.378;2022-10-16T07:37:02;31.87;;;10.07;;
20076;SDS011;12348;42.710;23.378;2022-10-16T07:39:28;9.27;;;6.43;;
20076;SDS011;12348;42.710;23.378;2022-10-16T07:41:55;7.83;;;5.33;;
20076;SDS011;12348;42.710;23.378;2022-10-16T07:44:22;8.13;;;5.77;;
20076;SDS011;12348;42.710;23.378;2022-10-16T07:46:48;8.23;;;4.90;;
20076;SDS011;12348;42.710;23.378;2022-10-16T07:49:15;7.90;;;5.43;;
20076;SDS011;12348;42.710;23.378;2022-10-16T07:51:43;7.67;;;5.27;;
20076;SDS011;12348;42.710;23.378;2022-10-16T07:54:10;9.13;;;5.77;;
20076;SDS011;12348;42.710;23.378;2022-10-16T07:56:37;6.60;;;4.70;;
20076;SDS011;12348;42.710;23.378;2022-10-16T07:59:03;9.20;;;5.10;;
20076;SDS011;12348;42.710;23.378;2022-10-16T08:01:30;6.13;;;4.87;;
20076;SDS011;12348;42.710;23.378;2022-10-16T08:03:57;15.77;;;9.60;;
20076;SDS011;12348;42.710;23.378;2022-10-16T08:06:23;7.97;;;4.50;;
20076;SDS011;12348;42.710;23.378;2022-10-16T08:08:52;11.33;;;6.07;;
20076;SDS011;12348;42.710;23.378;2022-10-16T08:11:19;14.10;;;4.83;;
20076;SDS011;12348;42.710;23.378;2022-10-16T08:13:46;8.83;;;6.07;;
20076;SDS011;12348;42.710;23.378;2022-10-16T08:16:13;9.27;;;5.70;;
20076;SDS011;12348;42.710;23.378;2022-10-16T08:18:40;8.03;;;4.70;;
20076;SDS011;12348;42.710;23.378;2022-10-16T08:21:07;10.57;;;5.40;;
20076;SDS011;12348;42.710;23.378;2022-10-16T08:23:39;8.17;;;4.23;;
20076;SDS011;12348;42.710;23.378;2022-10-16T08:26:08;7.67;;;5.07;;
20076;SDS011;12348;42.710;23.378;2022-10-16T08:28:35;14.57;;;8.10;;
20076;SDS011;12348;42.710;23.378;2022-10-16T08:31:06;6.27;;;4.47;;
20076;SDS011;12348;42.710;23.378;2022-10-16T08:33:34;7.53;;;4.30;;
20076;SDS011;12348;42.710;23.378;2022-10-16T08:36:01;5.70;;;3.20;;
20076;SDS011;12348;42.710;23.378;2022-10-16T08:38:28;4.83;;;3.17;;
20076;SDS011;12348;42.710;23.378;2022-10-16T08:40:56;6.40;;;3.63;;
20076;SDS011;12348;42.710;23.378;2022-10-16T08:43:39;5.13;;;3.20;;
20076;SDS011;12348;42.710;23.378;2022-10-16T08:46:22;7.87;;;3.70;;
20076;SDS011;12348;42.710;23.378;2022-10-16T08:49:03;8.43;;;4.93;;
20076;SDS011;12348;42.710;23.378;2022-10-16T08:51:34;4.23;;;3.10;;
20076;SDS011;12348;42.710;23.378;2022-10-16T08:54:03;9.77;;;6.10;;
20076;SDS011;12348;42.710;23.378;2022-10-16T08:56:31;5.80;;;3.33;;
20076;SDS011;12348;42.710;23.378;2022-10-16T08:59:00;6.70;;;4.30;;
20076;SDS011;12348;42.710;23.378;2022-10-16T09:01:32;8.17;;;5.77;;
20076;SDS011;12348;42.710;23.378;2022-10-16T09:04:16;4.97;;;3.23;;
20076;SDS011;12348;42.710;23.378;2022-10-16T09:06:59;5.13;;;2.97;;
20076;SDS011;12348;42.710;23.378;2022-10-16T09:09:44;6.00;;;2.90;;
20076;SDS011;12348;42.710;23.378;2022-10-16T09:12:22;5.53;;;3.53;;
20076;SDS011;12348;42.710;23.378;2022-10-16T09:14:58;3.77;;;3.00;;
20076;SDS011;12348;42.710;23.378;2022-10-16T09:17:36;5.40;;;3.10;;
20076;SDS011;12348;42.710;23.378;2022-10-16T09:20:18;6.87;;;4.30;;
20076;SDS011;12348;42.710;23.378;2022-10-16T09:22:53;8.40;;;5.37;;
20076;SDS011;12348;42.710;23.378;2022-10-16T09:25:26;7.90;;;4.80;;
20076;SDS011;12348;42.710;23.378;2022-10-16T09:27:56;5.70;;;3.43;;
20076;SDS011;12348;42.710;23.378;2022-10-16T09:30:26;4.70;;;2.20;;
20076;SDS011;12348;42.710;23.378;2022-10-16T09:32:55;5.17;;;2.60;;
20076;SDS011;12348;42.710;23.378;2022-10-16T09:35:27;4.80;;;3.00;;
20076;SDS011;12348;42.710;23.378;2022-10-16T09:37:59;3.67;;;2.67;;
20076;SDS011;12348;42.710;23.378;2022-10-16T09:40:26;3.10;;;2.70;;
20076;SDS011;12348;42.710;23.378;2022-10-16T09:42:57;5.53;;;3.17;;
20076;SDS011;12348;42.710;23.378;2022-10-16T09:45:29;4.87;;;2.90;;
20076;SDS011;12348;42.710;23.378;2022-10-16T09:47:56;4.63;;;2.60;;
20076;SDS011;12348;42.710;23.378;2022-10-16T09:50:23;5.50;;;3.27;;
20076;SDS011;12348;42.710;23.378;2022-10-16T09:53:02;3.67;;;2.60;;
20076;SDS011;12348;42.710;23.378;2022-10-16T09:55:30;3.57;;;2.50;;
20076;SDS011;12348;42.710;23.378;2022-10-16T09:57:57;4.50;;;3.00;;
20076;SDS011;12348;42.710;23.378;2022-10-16T10:00:23;3.87;;;3.07;;
20076;SDS011;12348;42.710;23.378;2022-10-16T10:02:52;4.80;;;3.33;;
20076;SDS011;12348;42.710;23.378;2022-10-16T10:05:21;8.53;;;3.70;;
20076;SDS011;12348;42.710;23.378;2022-10-16T10:07:54;4.40;;;2.93;;
20076;SDS011;12348;42.710;23.378;2022-10-16T10:10:23;3.67;;;2.87;;
20076;SDS011;12348;42.710;23.378;2022-10-16T10:12:54;3.90;;;2.63;;
20076;SDS011;12348;42.710;23.378;2022-10-16T10:15:21;7.53;;;2.87;;
20076;SDS011;12348;42.710;23.378;2022-10-16T10:17:50;7.60;;;3.73;;
20076;SDS011;12348;42.710;23.378;2022-10-16T10:20:22;7.87;;;4.67;;
20076;SDS011;12348;42.710;23.378;2022-10-16T10:22:50;9.67;;;5.30;;
20076;SDS011;12348;42.710;23.378;2022-10-16T10:25:24;10.23;;;5.67;;
20076;SDS011;12348;42.710;23.378;2022-10-16T10:30:59;9.20;;;5.73;;
20076;SDS011;12348;42.710;23.378;2022-10-16T10:33:40;6.07;;;3.70;;
20076;SDS011;12348;42.710;23.378;2022-10-16T10:38:59;3.83;;;3.23;;
20076;SDS011;12348;42.710;23.378;2022-10-16T10:44:41;14.17;;;8.63;;
20076;SDS011;12348;42.710;23.378;2022-10-16T10:47:21;9.77;;;5.87;;
20076;SDS011;12348;42.710;23.378;2022-10-16T10:50:02;6.43;;;4.47;;
20076;SDS011;12348;42.710;23.378;2022-10-16T10:52:36;6.00;;;4.50;;
20076;SDS011;12348;42.710;23.378;2022-10-16T10:55:16;6.00;;;3.70;;
20076;SDS011;12348;42.710;23.378;2022-10-16T11:00:42;4.87;;;3.60;;
20076;SDS011;12348;42.710;23.378;2022-10-16T11:03:22;7.03;;;4.50;;
20076;SDS011;12348;42.710;23.378;2022-10-16T11:06:07;4.33;;;3.37;;
20076;SDS011;12348;42.710;23.378;2022-10-16T11:08:38;5.73;;;3.57;;
20076;SDS011;12348;42.710;23.378;2022-10-16T11:11:09;6.60;;;4.93;;
20076;SDS011;12348;42.710;23.378;2022-10-16T11:13:44;11.53;;;7.17;;
20076;SDS011;12348;42.710;23.378;2022-10-16T11:16:18;6.50;;;3.30;;
20076;SDS011;12348;42.710;23.378;2022-10-16T11:18:49;15.10;;;4.70;;
20076;SDS011;12348;42.710;23.378;2022-10-16T11:21:22;5.47;;;3.17;;
20076;SDS011;12348;42.710;23.378;2022-10-16T11:23:51;8.13;;;4.57;;
20076;SDS011;12348;42.710;23.378;2022-10-16T11:26:24;9.80;;;6.47;;
20076;SDS011;12348;42.710;23.378;2022-10-16T11:28:55;8.67;;;4.33;;
20076;SDS011;12348;42.710;23.378;2022-10-16T11:31:25;4.43;;;3.10;;
20076;SDS011;12348;42.710;23.378;2022-10-16T11:33:59;11.37;;;5.43;;
20076;SDS011;12348;42.710;23.378;2022-10-16T11:36:35;5.33;;;3.20;;
20076;SDS011;12348;42.710;23.378;2022-10-16T11:39:09;4.63;;;2.77;;
20076;SDS011;12348;42.710;23.378;2022-10-16T11:41:44;6.20;;;4.23;;
20076;SDS011;12348;42.710;23.378;2022-10-16T11:44:32;5.53;;;3.57;;
20076;SDS011;12348;42.710;23.378;2022-10-16T11:47:08;4.13;;;3.27;;
20076;SDS011;12348;42.710;23.378;2022-10-16T11:49:40;11.63;;;7.17;;
20076;SDS011;12348;42.710;23.378;2022-10-16T11:52:12;3.97;;;2.73;;
20076;SDS011;12348;42.710;23.378;2022-10-16T11:54:46;6.47;;;4.33;;
20076;SDS011;12348;42.710;23.378;2022-10-16T11:57:17;8.07;;;3.90;;
20076;SDS011;12348;42.710;23.378;2022-10-16T11:59:48;5.00;;;3.07;;
20076;SDS011;12348;42.710;23.378;2022-10-16T12:02:28;7.50;;;4.30;;
20076;SDS011;12348;42.710;23.378;2022-10-16T12:05:05;3.97;;;2.67;;
20076;SDS011;12348;42.710;23.378;2022-10-16T12:07:46;4.07;;;2.60;;
20076;SDS011;12348;42.710;23.378;2022-10-16T12:10:19;5.43;;;3.90;;
20076;SDS011;12348;42.710;23.378;2022-10-16T12:12:48;3.30;;;2.30;;
20076;SDS011;12348;42.710;23.378;2022-10-16T12:15:19;7.17;;;3.90;;
20076;SDS011;12348;42.710;23.378;2022-10-16T12:17:48;7.10;;;3.67;;
20076;SDS011;12348;42.710;23.378;2022-10-16T12:20:20;5.37;;;2.83;;
20076;SDS011;12348;42.710;23.378;2022-10-16T12:22:51;4.63;;;3.13;;
20076;SDS011;12348;42.710;23.378;2022-10-16T12:25:21;4.57;;;2.50;;
20076;SDS011;12348;42.710;23.378;2022-10-16T12:27:54;3.60;;;2.67;;
20076;SDS011;12348;42.710;23.378;2022-10-16T12:30:26;4.37;;;3.70;;
20076;SDS011;12348;42.710;23.378;2022-10-16T12:32:54;3.10;;;2.70;;
20076;SDS011;12348;42.710;23.378;2022-10-16T12:35:23;8.23;;;5.17;;
20076;SDS011;12348;42.710;23.378;2022-10-16T12:37:54;6.53;;;3.70;;
20076;SDS011;12348;42.710;23.378;2022-10-16T12:40:31;3.57;;;2.87;;
20076;SDS011;12348;42.710;23.378;2022-10-16T12:43:10;4.10;;;2.83;;
20076;SDS011;12348;42.710;23.378;2022-10-16T12:45:38;3.53;;;2.80;;
20076;SDS011;12348;42.710;23.378;2022-10-16T12:48:18;3.47;;;2.67;;
20076;SDS011;12348;42.710;23.378;2022-10-16T12:50:47;3.43;;;3.03;;
20076;SDS011;12348;42.710;23.378;2022-10-16T12:53:19;4.13;;;3.20;;
20076;SDS011;12348;42.710;23.378;2022-10-16T12:55:50;8.17;;;4.20;;
20076;SDS011;12348;42.710;23.378;2022-10-16T12:58:27;4.53;;;3.10;;
20076;SDS011;12348;42.710;23.378;2022-10-16T13:01:20;5.30;;;3.20;;
20076;SDS011;12348;42.710;23.378;2022-10-16T13:04:02;7.20;;;3.80;;
20076;SDS011;12348;42.710;23.378;2022-10-16T13:06:46;5.23;;;2.43;;
20076;SDS011;12348;42.710;23.378;2022-10-16T13:09:27;8.03;;;4.23;;
20076;SDS011;12348;42.710;23.378;2022-10-16T13:12:15;6.00;;;3.77;;
20076;SDS011;12348;42.710;23.378;2022-10-16T13:15:01;4.67;;;2.50;;
20076;SDS011;12348;42.710;23.378;2022-10-16T13:17:45;7.57;;;3.03;;
20076;SDS011;12348;42.710;23.378;2022-10-16T13:20:21;2.60;;;1.90;;
20076;SDS011;12348;42.710;23.378;2022-10-16T13:22:57;9.87;;;5.23;;
20076;SDS011;12348;42.710;23.378;2022-10-16T13:25:38;10.60;;;6.23;;
20076;SDS011;12348;42.710;23.378;2022-10-16T13:28:12;3.87;;;2.43;;
20076;SDS011;12348;42.710;23.378;2022-10-16T13:30:41;2.03;;;1.70;;
20076;SDS011;12348;42.710;23.378;2022-10-16T13:33:13;6.57;;;2.30;;
20076;SDS011;12348;42.710;23.378;2022-10-16T13:35:46;5.93;;;2.80;;
20076;SDS011;12348;42.710;23.378;2022-10-16T13:38:16;2.77;;;2.10;;
20076;SDS011;12348;42.710;23.378;2022-10-16T13:40:52;4.73;;;2.80;;
20076;SDS011;12348;42.710;23.378;2022-10-16T13:43:22;5.20;;;2.67;;
20076;SDS011;12348;42.710;23.378;2022-10-16T13:45:53;6.13;;;3.57;;
20076;SDS011;12348;42.710;23.378;2022-10-16T13:48:21;1.80;;;1.40;;
20076;SDS011;12348;42.710;23.378;2022-10-16T13:50:57;3.70;;;2.37;;
20076;SDS011;12348;42.710;23.378;2022-10-16T13:53:25;5.30;;;3.57;;
20076;SDS011;12348;42.710;23.378;2022-10-16T13:55:53;3.17;;;2.17;;
20076;SDS011;12348;42.710;23.378;2022-10-16T13:58:20;3.63;;;2.20;;
20076;SDS011;12348;42.710;23.378;2022-10-16T14:00:54;4.07;;;2.50;;
20076;SDS011;12348;42.710;23.378;2022-10-16T14:03:22;3.47;;;2.33;;
20076;SDS011;12348;42.710;23.378;2022-10-16T14:05:51;6.50;;;3.03;;
20076;SDS011;12348;42.710;23.378;2022-10-16T14:08:19;3.80;;;2.70;;
20076;SDS011;12348;42.710;23.378;2022-10-16T14:10:47;2.53;;;2.20;;
20076;SDS011;12348;42.710;23.378;2022-10-16T14:13:17;2.77;;;2.00;;
20076;SDS011;12348;42.710;23.378;2022-10-16T14:15:46;6.17;;;2.20;;
20076;SDS011;12348;42.710;23.378;2022-10-16T14:18:17;4.87;;;2.57;;
20076;SDS011;12348;42.710;23.378;2022-10-16T14:20:46;4.90;;;3.00;;
20076;SDS011;12348;42.710;23.378;2022-10-16T14:23:20;3.67;;;2.27;;
20076;SDS011;12348;42.710;23.378;2022-10-16T14:25:51;2.43;;;2.00;;
20076;SDS011;12348;42.710;23.378;2022-10-16T14:28:20;8.97;;;4.13;;
20076;SDS011;12348;42.710;23.378;2022-10-16T14:30:49;12.67;;;7.10;;
20076;SDS011;12348;42.710;23.378;2022-10-16T14:33:21;2.77;;;1.90;;
20076;SDS011;12348;42.710;23.378;2022-10-16T14:35:59;12.00;;;4.77;;
20076;SDS011;12348;42.710;23.378;2022-10-16T14:38:28;9.33;;;5.30;;
20076;SDS011;12348;42.710;23.378;2022-10-16T14:40:56;12.50;;;4.97;;
20076;SDS011;12348;42.710;23.378;2022-10-16T14:43:29;23.90;;;10.03;;
20076;SDS011;12348;42.710;23.378;2022-10-16T14:45:59;18.13;;;7.57;;
20076;SDS011;12348;42.710;23.378;2022-10-16T14:48:27;14.70;;;6.53;;
20076;SDS011;12348;42.710;23.378;2022-10-16T14:50:54;13.63;;;5.67;;
20076;SDS011;12348;42.710;23.378;2022-10-16T14:53:21;20.43;;;9.47;;
20076;SDS011;12348;42.710;23.378;2022-10-16T14:55:48;16.67;;;6.17;;
20076;SDS011;12348;42.710;23.378;2022-10-16T14:58:15;40.80;;;15.97;;
20076;SDS011;12348;42.710;23.378;2022-10-16T15:00:46;7.37;;;2.40;;
20076;SDS011;12348;42.710;23.378;2022-10-16T15:03:13;27.80;;;9.10;;